sensor_id;sensor_type;location;lat;lon;timestamp;pressure;altitude;pressure_sealevel;temperature;humidity
51460;BME280;37534;39.772;2.718;2023-05-07T00:01:06;101107.38;;;17.81;100.00
51460;BME280;37534;39.772;2.718;2023-05-07T00:03:32;101134.03;;;17.88;100.00
51460;BME280;37534;39.772;2.718;2023-05-07T00:05:58;101139.09;;;17.91;100.00
51460;BME280;37534;39.772;2.718;2023-05-07T00:08:23;101139.09;;;17.91;100.00
51460;BME280;37534;39.772;2.718;2023-05-07T00:10:49;101133.25;;;18.03;100.00
51460;BME280;37534;39.772;2.718;2023-05-07T00:13:15;101132.28;;;18.05;100.00
51460;BME280;37534;39.772;2.718;2023-05-07T00:15:40;101145.63;;;17.99;100.00
51460;BME280;37534;39.772;2.718;2023-05-07T00:18:06;101159.75;;;17.95;100.00
51460;BME280;37534;39.772;2.718;2023-05-07T00:20:31;101168.81;;;18.05;100.00
51460;BME280;37534;39.772;2.718;2023-05-07T00:22:57;101165.97;;;18.10;100.00
51460;BME280;37534;39.772;2.718;2023-05-07T00:25:22;101174.03;;;18.23;100.00
51460;BME280;37534;39.772;2.718;2023-05-07T00:27:48;101170.03;;;18.33;100.00
51460;BME280;37534;39.772;2.718;2023-05-07T00:30:13;101179.84;;;18.46;100.00
51460;BME280;37534;39.772;2.718;2023-05-07T00:32:44;101181.81;;;18.58;100.00
51460;BME280;37534;39.772;2.718;2023-05-07T00:35:11;101195.00;;;18.72;100.00
51460;BME280;37534;39.772;2.718;2023-05-07T00:37:36;101189.78;;;18.72;100.00
51460;BME280;37534;39.772;2.718;2023-05-07T00:40:02;101216.78;;;18.90;100.00
51460;BME280;37534;39.772;2.718;2023-05-07T00:42:30;101216.19;;;19.01;100.00
51460;BME280;37534;39.772;2.718;2023-05-07T00:44:58;101209.13;;;19.03;100.00
51460;BME280;37534;39.772;2.718;2023-05-07T00:47:23;101207.78;;;19.28;100.00
51460;BME280;37534;39.772;2.718;2023-05-07T00:49:50;101216.47;;;19.44;100.00
51460;BME280;37534;39.772;2.718;2023-05-07T00:52:26;101219.25;;;19.41;100.00
51460;BME280;37534;39.772;2.718;2023-05-07T00:54:52;101202.38;;;19.31;100.00
51460;BME280;37534;39.772;2.718;2023-05-07T00:57:18;101208.19;;;19.36;100.00
51460;BME280;37534;39.772;2.718;2023-05-07T00:59:46;101182.22;;;19.33;100.00
51460;BME280;37534;39.772;2.718;2023-05-07T01:02:12;101170.72;;;19.51;100.00
51460;BME280;37534;39.772;2.718;2023-05-07T01:04:37;101163.56;;;19.39;100.00
51460;BME280;37534;39.772;2.718;2023-05-07T01:07:03;101174.19;;;19.36;100.00
51460;BME280;37534;39.772;2.718;2023-05-07T01:09:29;101164.41;;;19.24;100.00
51460;BME280;37534;39.772;2.718;2023-05-07T01:11:56;101183.72;;;19.21;100.00
51460;BME280;37534;39.772;2.718;2023-05-07T01:14:23;101185.00;;;19.14;100.00
51460;BME280;37534;39.772;2.718;2023-05-07T01:16:49;101183.38;;;19.11;100.00
51460;BME280;37534;39.772;2.718;2023-05-07T01:19:18;101191.41;;;19.08;100.00
51460;BME280;37534;39.772;2.718;2023-05-07T01:21:48;101191.41;;;19.08;100.00
51460;BME280;37534;39.772;2.718;2023-05-07T01:24:14;101198.50;;;19.06;100.00
51460;BME280;37534;39.772;2.718;2023-05-07T01:26:41;101194.50;;;19.15;100.00
51460;BME280;37534;39.772;2.718;2023-05-07T01:29:07;101188.88;;;19.07;100.00
51460;BME280;37534;39.772;2.718;2023-05-07T01:31:33;101188.78;;;19.08;100.00
51460;BME280;37534;39.772;2.718;2023-05-07T01:34:01;101186.66;;;18.99;100.00
51460;BME280;37534;39.772;2.718;2023-05-07T01:36:29;101183.78;;;18.88;100.00
51460;BME280;37534;39.772;2.718;2023-05-07T01:38:55;101188.44;;;18.81;100.00
51460;BME280;37534;39.772;2.718;2023-05-07T01:41:23;101172.13;;;18.60;100.00
51460;BME280;37534;39.772;2.718;2023-05-07T01:43:49;101175.69;;;18.59;100.00
51460;BME280;37534;39.772;2.718;2023-05-07T01:46:17;101166.63;;;18.49;100.00
51460;BME280;37534;39.772;2.718;2023-05-07T01:48:43;101166.28;;;18.39;100.00
51460;BME280;37534;39.772;2.718;2023-05-07T01:51:11;101172.47;;;18.36;100.00
51460;BME280;37534;39.772;2.718;2023-05-07T01:53:38;101171.72;;;18.34;100.00
51460;BME280;37534;39.772;2.718;2023-05-07T01:56:04;101174.47;;;18.31;100.00
51460;BME280;37534;39.772;2.718;2023-05-07T01:58:29;101179.41;;;18.20;100.00
51460;BME280;37534;39.772;2.718;2023-05-07T02:00:55;101180.66;;;18.13;100.00
51460;BME280;37534;39.772;2.718;2023-05-07T02:03:20;101173.22;;;18.05;100.00
51460;BME280;37534;39.772;2.718;2023-05-07T02:05:46;101166.97;;;18.08;100.00
51460;BME280;37534;39.772;2.718;2023-05-07T02:08:11;101172.88;;;18.11;100.00
51460;BME280;37534;39.772;2.718;2023-05-07T02:10:37;101172.75;;;18.14;100.00
51460;BME280;37534;39.772;2.718;2023-05-07T02:13:02;101165.44;;;18.03;100.00
51460;BME280;37534;39.772;2.718;2023-05-07T02:15:28;101165.47;;;17.84;100.00
51460;BME280;37534;39.772;2.718;2023-05-07T02:18:01;101156.53;;;17.71;100.00
51460;BME280;37534;39.772;2.718;2023-05-07T02:20:27;101146.81;;;17.57;100.00
51460;BME280;37534;39.772;2.718;2023-05-07T02:22:53;101149.56;;;17.54;100.00
51460;BME280;37534;39.772;2.718;2023-05-07T02:25:18;101142.09;;;17.64;100.00
51460;BME280;37534;39.772;2.718;2023-05-07T02:27:44;101143.88;;;17.63;100.00
51460;BME280;37534;39.772;2.718;2023-05-07T02:30:10;101135.94;;;17.47;100.00
51460;BME280;37534;39.772;2.718;2023-05-07T02:32:35;101119.56;;;17.26;100.00
51460;BME280;37534;39.772;2.718;2023-05-07T02:35:01;101120.78;;;17.19;100.00
51460;BME280;37534;39.772;2.718;2023-05-07T02:37:26;101114.03;;;17.15;100.00
51460;BME280;37534;39.772;2.718;2023-05-07T02:39:52;101129.09;;;17.27;100.00
51460;BME280;37534;39.772;2.718;2023-05-07T02:42:17;101131.50;;;17.13;100.00
51460;BME280;37534;39.772;2.718;2023-05-07T02:44:43;101136.97;;;17.07;100.00
51460;BME280;37534;39.772;2.718;2023-05-07T02:47:08;101144.03;;;17.05;100.00
51460;BME280;37534;39.772;2.718;2023-05-07T02:49:34;101151.22;;;17.00;100.00
51460;BME280;37534;39.772;2.718;2023-05-07T02:52:00;101158.41;;;16.95;100.00
51460;BME280;37534;39.772;2.718;2023-05-07T02:54:25;101157.00;;;17.06;100.00
51460;BME280;37534;39.772;2.718;2023-05-07T02:56:51;101163.91;;;17.07;100.00
51460;BME280;37534;39.772;2.718;2023-05-07T02:59:16;101172.13;;;16.98;100.00
51460;BME280;37534;39.772;2.718;2023-05-07T03:01:42;101158.63;;;16.90;100.00
51460;BME280;37534;39.772;2.718;2023-05-07T03:04:10;101170.38;;;17.18;100.00
51460;BME280;37534;39.772;2.718;2023-05-07T03:06:36;101171.38;;;17.15;100.00
51460;BME280;37534;39.772;2.718;2023-05-07T03:09:01;101167.84;;;16.97;100.00
51460;BME280;37534;39.772;2.718;2023-05-07T03:11:27;101156.22;;;16.85;100.00
51460;BME280;37534;39.772;2.718;2023-05-07T03:13:53;101155.00;;;16.73;100.00
51460;BME280;37534;39.772;2.718;2023-05-07T03:16:18;101158.84;;;16.65;100.00
51460;BME280;37534;39.772;2.718;2023-05-07T03:18:44;101174.47;;;16.65;100.00
51460;BME280;37534;39.772;2.718;2023-05-07T03:21:09;101157.75;;;16.50;100.00
51460;BME280;37534;39.772;2.718;2023-05-07T03:23:35;101173.78;;;16.61;100.00
51460;BME280;37534;39.772;2.718;2023-05-07T03:26:01;101172.25;;;16.56;100.00
51460;BME280;37534;39.772;2.718;2023-05-07T03:28:26;101189.88;;;16.50;100.00
51460;BME280;37534;39.772;2.718;2023-05-07T03:30:52;101186.63;;;16.45;100.00
51460;BME280;37534;39.772;2.718;2023-05-07T03:33:17;101179.47;;;16.50;100.00
51460;BME280;37534;39.772;2.718;2023-05-07T03:35:43;101185.38;;;16.54;100.00
51460;BME280;37534;39.772;2.718;2023-05-07T03:38:08;101197.28;;;16.39;100.00
51460;BME280;37534;39.772;2.718;2023-05-07T03:40:34;101191.34;;;16.35;100.00
51460;BME280;37534;39.772;2.718;2023-05-07T03:43:00;101176.31;;;16.22;100.00
51460;BME280;37534;39.772;2.718;2023-05-07T03:45:26;101181.47;;;16.23;100.00
51460;BME280;37534;39.772;2.718;2023-05-07T03:47:51;101193.47;;;16.27;100.00
51460;BME280;37534;39.772;2.718;2023-05-07T03:50:17;101191.75;;;16.26;100.00
51460;BME280;37534;39.772;2.718;2023-05-07T03:52:42;101208.81;;;16.33;100.00
51460;BME280;37534;39.772;2.718;2023-05-07T03:55:08;101203.59;;;16.33;100.00
51460;BME280;37534;39.772;2.718;2023-05-07T03:57:34;101215.50;;;16.39;100.00
51460;BME280;37534;39.772;2.718;2023-05-07T03:59:59;101220.41;;;16.47;100.00
51460;BME280;37534;39.772;2.718;2023-05-07T04:02:25;101226.03;;;16.36;100.00
51460;BME280;37534;39.772;2.718;2023-05-07T04:04:50;101221.50;;;16.21;100.00
51460;BME280;37534;39.772;2.718;2023-05-07T04:07:16;101221.63;;;16.18;100.00
51460;BME280;37534;39.772;2.718;2023-05-07T04:09:41;101220.19;;;16.10;100.00
51460;BME280;37534;39.772;2.718;2023-05-07T04:12:07;101236.47;;;16.15;100.00
51460;BME280;37534;39.772;2.718;2023-05-07T04:14:32;101234.63;;;16.18;100.00
51460;BME280;37534;39.772;2.718;2023-05-07T04:16:59;101246.44;;;16.26;100.00
51460;BME280;37534;39.772;2.718;2023-05-07T04:19:24;101249.25;;;16.20;100.00
51460;BME280;37534;39.772;2.718;2023-05-07T04:21:50;101249.63;;;16.33;100.00
51460;BME280;37534;39.772;2.718;2023-05-07T04:24:16;101236.34;;;16.39;100.00
51460;BME280;37534;39.772;2.718;2023-05-07T04:26:41;101249.69;;;16.31;100.00
51460;BME280;37534;39.772;2.718;2023-05-07T04:29:07;101250.06;;;16.22;100.00
51460;BME280;37534;39.772;2.718;2023-05-07T04:31:33;101250.44;;;16.13;100.00
51460;BME280;37534;39.772;2.718;2023-05-07T04:33:58;101252.84;;;16.18;100.00
51460;BME280;37534;39.772;2.718;2023-05-07T04:36:24;101258.47;;;16.29;100.00
51460;BME280;37534;39.772;2.718;2023-05-07T04:38:53;101250.06;;;16.22;100.00
51460;BME280;37534;39.772;2.718;2023-05-07T04:41:19;101245.81;;;16.20;100.00
51460;BME280;37534;39.772;2.718;2023-05-07T04:43:44;101241.06;;;16.09;100.00
51460;BME280;37534;39.772;2.718;2023-05-07T04:46:10;101249.19;;;16.01;100.00
51460;BME280;37534;39.772;2.718;2023-05-07T04:48:36;101240.03;;;15.91;100.00
51460;BME280;37534;39.772;2.718;2023-05-07T04:51:01;101230.91;;;15.81;100.00
51460;BME280;37534;39.772;2.718;2023-05-07T04:53:27;101234.63;;;15.73;100.00
51460;BME280;37534;39.772;2.718;2023-05-07T04:55:56;101236.69;;;15.65;100.00
51460;BME280;37534;39.772;2.718;2023-05-07T04:58:23;101216.00;;;15.62;100.00
51460;BME280;37534;39.772;2.718;2023-05-07T05:00:49;101232.00;;;15.75;100.00
51460;BME280;37534;39.772;2.718;2023-05-07T05:03:14;101223.91;;;15.59;100.00
51460;BME280;37534;39.772;2.718;2023-05-07T05:05:40;101224.59;;;15.64;100.00
51460;BME280;37534;39.772;2.718;2023-05-07T05:08:06;101172.91;;;15.33;100.00
51460;BME280;37534;39.772;2.718;2023-05-07T05:10:31;101213.56;;;15.57;100.00
51460;BME280;37534;39.772;2.718;2023-05-07T05:12:57;101211.03;;;15.56;100.00
51460;BME280;37534;39.772;2.718;2023-05-07T05:15:23;101216.00;;;15.62;100.00
51460;BME280;37534;39.772;2.718;2023-05-07T05:17:48;101219.22;;;15.69;100.00
51460;BME280;37534;39.772;2.718;2023-05-07T05:20:14;101210.75;;;15.64;100.00
51460;BME280;37534;39.772;2.718;2023-05-07T05:22:41;101220.91;;;15.70;100.00
51460;BME280;37534;39.772;2.718;2023-05-07T05:25:06;101220.84;;;15.71;100.00
51460;BME280;37534;39.772;2.718;2023-05-07T05:27:32;101207.53;;;15.79;100.00
51460;BME280;37534;39.772;2.718;2023-05-07T05:29:57;101203.22;;;15.80;100.00
51460;BME280;37534;39.772;2.718;2023-05-07T05:32:23;101209.91;;;15.85;100.00
51460;BME280;37534;39.772;2.718;2023-05-07T05:34:48;101199.69;;;15.81;100.00
51460;BME280;37534;39.772;2.718;2023-05-07T05:37:14;101203.88;;;15.85;100.00
51460;BME280;37534;39.772;2.718;2023-05-07T05:39:39;101194.47;;;15.81;100.00
51460;BME280;37534;39.772;2.718;2023-05-07T05:42:05;101210.53;;;15.92;100.00
51460;BME280;37534;39.772;2.718;2023-05-07T05:44:31;101204.78;;;15.84;100.00
51460;BME280;37534;39.772;2.718;2023-05-07T05:46:56;101214.81;;;15.93;100.00
51460;BME280;37534;39.772;2.718;2023-05-07T05:49:24;101214.63;;;15.98;100.00
51460;BME280;37534;39.772;2.718;2023-05-07T05:51:50;101221.34;;;16.03;100.00
51460;BME280;37534;39.772;2.718;2023-05-07T05:54:15;101216.03;;;16.06;100.00
51460;BME280;37534;39.772;2.718;2023-05-07T05:56:41;101231.25;;;16.15;100.00
51460;BME280;37534;39.772;2.718;2023-05-07T05:59:07;101234.13;;;16.30;100.00
51460;BME280;37534;39.772;2.718;2023-05-07T06:01:33;101233.75;;;16.39;100.00
51460;BME280;37534;39.772;2.718;2023-05-07T06:03:58;101241.69;;;16.57;100.00
51460;BME280;37534;39.772;2.718;2023-05-07T06:06:24;101246.38;;;16.69;100.00
51460;BME280;37534;39.772;2.718;2023-05-07T06:08:49;101234.50;;;16.82;100.00
51460;BME280;37534;39.772;2.718;2023-05-07T06:11:15;101257.91;;;17.04;100.00
51460;BME280;37534;39.772;2.718;2023-05-07T06:13:40;101249.72;;;17.12;100.00
51460;BME280;37534;39.772;2.718;2023-05-07T06:16:06;101252.00;;;17.20;100.00
51460;BME280;37534;39.772;2.718;2023-05-07T06:18:32;101266.75;;;17.40;100.00
51460;BME280;37534;39.772;2.718;2023-05-07T06:20:57;101269.50;;;17.56;100.00
51460;BME280;37534;39.772;2.718;2023-05-07T06:23:23;101278.50;;;17.67;100.00
51460;BME280;37534;39.772;2.718;2023-05-07T06:25:49;101276.09;;;17.82;100.00
51460;BME280;37534;39.772;2.718;2023-05-07T06:28:17;101278.50;;;17.86;100.00
51460;BME280;37534;39.772;2.718;2023-05-07T06:30:43;101274.00;;;17.90;100.00
51460;BME280;37534;39.772;2.718;2023-05-07T06:33:09;101260.50;;;17.99;100.00
51460;BME280;37534;39.772;2.718;2023-05-07T06:35:35;101272.94;;;18.12;100.00
51460;BME280;37534;39.772;2.718;2023-05-07T06:38:00;101276.88;;;18.20;100.00
51460;BME280;37534;39.772;2.718;2023-05-07T06:40:41;101277.44;;;18.27;100.00
51460;BME280;37534;39.772;2.718;2023-05-07T06:43:07;101274.69;;;18.30;100.00
51460;BME280;37534;39.772;2.718;2023-05-07T06:45:32;101259.63;;;18.35;96.74
51460;BME280;37534;39.772;2.718;2023-05-07T06:47:58;101272.66;;;18.53;96.87
51460;BME280;37534;39.772;2.718;2023-05-07T06:50:23;101278.13;;;18.66;94.84
51460;BME280;37534;39.772;2.718;2023-05-07T06:52:49;101267.88;;;18.78;91.69
51460;BME280;37534;39.772;2.718;2023-05-07T06:55:14;101265.28;;;18.96;90.82
51460;BME280;37534;39.772;2.718;2023-05-07T06:57:40;101271.22;;;19.15;91.34
51460;BME280;37534;39.772;2.718;2023-05-07T07:00:06;101274.38;;;19.38;88.89
51460;BME280;37534;39.772;2.718;2023-05-07T07:02:34;101275.31;;;19.53;84.28
51460;BME280;37534;39.772;2.718;2023-05-07T07:04:59;101287.31;;;19.73;80.91
51460;BME280;37534;39.772;2.718;2023-05-07T07:07:25;101292.41;;;19.92;74.57
51460;BME280;37534;39.772;2.718;2023-05-07T07:09:50;101289.69;;;20.09;76.46
51460;BME280;37534;39.772;2.718;2023-05-07T07:12:16;101290.56;;;20.24;74.12
51460;BME280;37534;39.772;2.718;2023-05-07T07:14:42;101304.66;;;20.38;69.23
51460;BME280;37534;39.772;2.718;2023-05-07T07:17:07;101296.25;;;20.47;69.64
51460;BME280;37534;39.772;2.718;2023-05-07T07:19:33;101306.63;;;20.64;70.76
51460;BME280;37534;39.772;2.718;2023-05-07T07:21:58;101304.22;;;20.76;70.81
51460;BME280;37534;39.772;2.718;2023-05-07T07:24:24;101310.22;;;20.92;69.04
51460;BME280;37534;39.772;2.718;2023-05-07T07:26:50;101311.53;;;21.14;71.07
51460;BME280;37534;39.772;2.718;2023-05-07T07:29:15;101314.72;;;21.33;64.61
51460;BME280;37534;39.772;2.718;2023-05-07T07:31:41;101308.38;;;21.52;65.99
51460;BME280;37534;39.772;2.718;2023-05-07T07:34:06;101314.59;;;21.78;62.96
51460;BME280;37534;39.772;2.718;2023-05-07T07:36:32;101321.00;;;22.01;60.90
51460;BME280;37534;39.772;2.718;2023-05-07T07:38:57;101321.91;;;22.14;57.28
51460;BME280;37534;39.772;2.718;2023-05-07T07:41:23;101324.28;;;22.32;54.00
51460;BME280;37534;39.772;2.718;2023-05-07T07:44:10;101307.38;;;22.36;47.79
51460;BME280;37534;39.772;2.718;2023-05-07T07:46:38;101317.81;;;22.63;46.70
51460;BME280;37534;39.772;2.718;2023-05-07T07:49:03;101324.69;;;22.91;45.99
51460;BME280;37534;39.772;2.718;2023-05-07T07:51:35;101325.44;;;23.19;47.19
51460;BME280;37534;39.772;2.718;2023-05-07T07:54:00;101319.53;;;23.28;44.64
51460;BME280;37534;39.772;2.718;2023-05-07T07:56:27;101325.91;;;23.50;44.29
51460;BME280;37534;39.772;2.718;2023-05-07T07:58:53;101331.50;;;23.58;44.56
51460;BME280;37534;39.772;2.718;2023-05-07T08:01:19;101321.38;;;23.52;45.82
51460;BME280;37534;39.772;2.718;2023-05-07T08:03:44;101330.84;;;23.67;48.26
51460;BME280;37534;39.772;2.718;2023-05-07T08:06:10;101342.84;;;23.84;48.56
51460;BME280;37534;39.772;2.718;2023-05-07T08:08:36;101326.00;;;23.98;50.06
51460;BME280;37534;39.772;2.718;2023-05-07T08:11:01;101340.75;;;24.25;49.95
51460;BME280;37534;39.772;2.718;2023-05-07T08:13:27;101309.88;;;24.38;50.41
51460;BME280;37534;39.772;2.718;2023-05-07T08:15:52;101322.69;;;24.56;49.54
51460;BME280;37534;39.772;2.718;2023-05-07T08:18:18;101346.59;;;24.88;48.72
51460;BME280;37534;39.772;2.718;2023-05-07T08:20:43;101334.50;;;24.97;48.73
51460;BME280;37534;39.772;2.718;2023-05-07T08:23:09;101327.78;;;25.04;47.48
51460;BME280;37534;39.772;2.718;2023-05-07T08:25:34;101344.50;;;25.27;47.58
51460;BME280;37534;39.772;2.718;2023-05-07T08:28:01;101350.16;;;25.45;49.32
51460;BME280;37534;39.772;2.718;2023-05-07T08:30:26;101346.53;;;25.57;48.95
51460;BME280;37534;39.772;2.718;2023-05-07T08:32:52;101330.78;;;25.67;47.36
51460;BME280;37534;39.772;2.718;2023-05-07T08:35:17;101327.25;;;25.89;47.03
51460;BME280;37534;39.772;2.718;2023-05-07T08:37:43;101339.78;;;26.20;46.21
51460;BME280;37534;39.772;2.718;2023-05-07T08:40:09;101327.28;;;26.22;42.22
51460;BME280;37534;39.772;2.718;2023-05-07T08:42:36;101337.63;;;26.46;40.13
51460;BME280;37534;39.772;2.718;2023-05-07T08:45:04;101323.94;;;26.41;38.87
51460;BME280;37534;39.772;2.718;2023-05-07T08:47:38;101336.56;;;26.69;37.36
51460;BME280;37534;39.772;2.718;2023-05-07T08:50:06;101308.94;;;26.93;35.27
51460;BME280;37534;39.772;2.718;2023-05-07T08:52:32;101317.50;;;27.27;33.98
51460;BME280;37534;39.772;2.718;2023-05-07T08:54:58;101326.38;;;27.67;34.84
51460;BME280;37534;39.772;2.718;2023-05-07T08:57:24;101333.94;;;27.81;34.55
51460;BME280;37534;39.772;2.718;2023-05-07T08:59:50;101316.56;;;27.38;34.07
51460;BME280;37534;39.772;2.718;2023-05-07T09:02:15;101328.28;;;27.45;34.95
51460;BME280;37534;39.772;2.718;2023-05-07T09:04:41;101309.19;;;27.42;33.12
51460;BME280;37534;39.772;2.718;2023-05-07T09:07:07;101308.47;;;27.40;33.29
51460;BME280;37534;39.772;2.718;2023-05-07T09:09:33;101321.75;;;27.49;33.64
51460;BME280;37534;39.772;2.718;2023-05-07T09:11:59;101317.50;;;27.27;33.17
51460;BME280;37534;39.772;2.718;2023-05-07T09:14:25;101300.19;;;26.92;34.42
51460;BME280;37534;39.772;2.718;2023-05-07T09:16:54;101307.31;;;26.71;34.84
51460;BME280;37534;39.772;2.718;2023-05-07T09:19:24;101330.66;;;26.87;34.76
51460;BME280;37534;39.772;2.718;2023-05-07T09:22:02;101326.94;;;26.47;39.02
51460;BME280;37534;39.772;2.718;2023-05-07T09:24:28;101321.00;;;25.90;42.84
51460;BME280;37534;39.772;2.718;2023-05-07T09:26:57;101319.41;;;25.44;43.65
51460;BME280;37534;39.772;2.718;2023-05-07T09:29:23;101327.69;;;25.62;44.81
51460;BME280;37534;39.772;2.718;2023-05-07T09:31:49;101355.16;;;25.71;45.05
51460;BME280;37534;39.772;2.718;2023-05-07T09:34:14;101356.91;;;25.93;45.33
51460;BME280;37534;39.772;2.718;2023-05-07T09:36:41;101365.34;;;25.98;45.57
51460;BME280;37534;39.772;2.718;2023-05-07T09:39:07;101368.00;;;25.75;44.94
51460;BME280;37534;39.772;2.718;2023-05-07T09:41:33;101396.97;;;25.54;47.18
51460;BME280;37534;39.772;2.718;2023-05-07T09:44:08;101392.16;;;25.59;47.45
51460;BME280;37534;39.772;2.718;2023-05-07T09:46:36;101406.56;;;25.33;50.20
51460;BME280;37534;39.772;2.718;2023-05-07T09:49:06;101377.94;;;25.04;52.31
51460;BME280;37534;39.772;2.718;2023-05-07T09:51:41;101423.44;;;25.08;55.04
51460;BME280;37534;39.772;2.718;2023-05-07T09:54:08;101412.59;;;24.88;56.28
51460;BME280;37534;39.772;2.718;2023-05-07T09:56:35;101399.44;;;24.64;59.76
51460;BME280;37534;39.772;2.718;2023-05-07T09:59:03;101415.94;;;24.55;62.10
51460;BME280;37534;39.772;2.718;2023-05-07T10:01:30;101420.47;;;24.53;63.40
51460;BME280;37534;39.772;2.718;2023-05-07T10:03:57;101427.66;;;24.51;65.76
51460;BME280;37534;39.772;2.718;2023-05-07T10:06:24;101437.59;;;24.47;67.78
51460;BME280;37534;39.772;2.718;2023-05-07T10:08:52;101438.44;;;24.10;75.31
51460;BME280;37534;39.772;2.718;2023-05-07T10:11:18;101442.84;;;23.86;79.33
51460;BME280;37534;39.772;2.718;2023-05-07T10:13:46;101429.78;;;23.84;80.37
51460;BME280;37534;39.772;2.718;2023-05-07T10:16:12;101450.13;;;23.95;81.90
51460;BME280;37534;39.772;2.718;2023-05-07T10:18:38;101450.50;;;24.02;87.11
51460;BME280;37534;39.772;2.718;2023-05-07T10:21:13;101422.72;;;23.72;89.48
51460;BME280;37534;39.772;2.718;2023-05-07T10:23:51;101444.44;;;23.88;90.63
51460;BME280;37534;39.772;2.718;2023-05-07T10:26:18;101421.75;;;23.86;89.94
51460;BME280;37534;39.772;2.718;2023-05-07T10:28:50;101434.66;;;24.15;89.22
51460;BME280;37534;39.772;2.718;2023-05-07T10:34:25;101434.34;;;24.43;86.92
51460;BME280;37534;39.772;2.718;2023-05-07T10:36:52;101405.84;;;24.48;87.27
51460;BME280;37534;39.772;2.718;2023-05-07T10:39:20;101412.50;;;24.41;87.50
51460;BME280;37534;39.772;2.718;2023-05-07T10:41:46;101391.16;;;25.04;82.03
51460;BME280;37534;39.772;2.718;2023-05-07T10:44:11;101420.38;;;25.82;80.83
51460;BME280;37534;39.772;2.718;2023-05-07T10:46:37;101413.25;;;26.16;77.55
51460;BME280;37534;39.772;2.718;2023-05-07T10:51:29;101431.41;;;26.85;71.78
51460;BME280;37534;39.772;2.718;2023-05-07T10:56:37;101429.19;;;26.69;69.03
51460;BME280;37534;39.772;2.718;2023-05-07T10:59:31;101432.91;;;26.99;68.57
51460;BME280;37534;39.772;2.718;2023-05-07T11:02:02;101420.56;;;27.09;66.40
51460;BME280;37534;39.772;2.718;2023-05-07T11:04:29;101432.13;;;27.29;65.20
51460;BME280;37534;39.772;2.718;2023-05-07T11:15:33;101432.19;;;27.18;59.67
51460;BME280;37534;39.772;2.718;2023-05-07T11:17:59;101412.16;;;27.04;57.45
51460;BME280;37534;39.772;2.718;2023-05-07T11:20:54;101439.03;;;27.42;58.90
51460;BME280;37534;39.772;2.718;2023-05-07T11:26:05;101405.69;;;27.18;57.58
51460;BME280;37534;39.772;2.718;2023-05-07T11:28:37;101419.09;;;27.26;57.14
51460;BME280;37534;39.772;2.718;2023-05-07T11:31:03;101419.75;;;27.19;57.66
51460;BME280;37534;39.772;2.718;2023-05-07T11:33:30;101407.91;;;26.92;58.13
51460;BME280;37534;39.772;2.718;2023-05-07T11:35:56;101411.38;;;26.71;58.31
51460;BME280;37534;39.772;2.718;2023-05-07T11:38:22;101417.59;;;26.82;57.85
51460;BME280;37534;39.772;2.718;2023-05-07T11:40:49;101435.22;;;26.92;58.03
51460;BME280;37534;39.772;2.718;2023-05-07T11:43:15;101431.34;;;26.76;57.70
51460;BME280;37534;39.772;2.718;2023-05-07T11:45:40;101432.94;;;26.88;58.50
51460;BME280;37534;39.772;2.718;2023-05-07T11:48:06;101422.47;;;26.65;59.34
51460;BME280;37534;39.772;2.718;2023-05-07T11:50:32;101424.94;;;26.46;58.93
51460;BME280;37534;39.772;2.718;2023-05-07T11:52:57;101436.47;;;26.45;59.52
51460;BME280;37534;39.772;2.718;2023-05-07T11:55:24;101434.22;;;26.40;59.89
51460;BME280;37534;39.772;2.718;2023-05-07T11:57:50;101435.88;;;26.41;60.36
51460;BME280;37534;39.772;2.718;2023-05-07T12:00:16;101441.34;;;26.28;60.29
51460;BME280;37534;39.772;2.718;2023-05-07T12:02:43;101440.41;;;26.18;61.19
51460;BME280;37534;39.772;2.718;2023-05-07T12:05:08;101441.91;;;25.99;61.26
51460;BME280;37534;39.772;2.718;2023-05-07T12:07:35;101440.06;;;25.77;62.25
51460;BME280;37534;39.772;2.718;2023-05-07T12:10:06;101451.50;;;25.67;63.52
51460;BME280;37534;39.772;2.718;2023-05-07T12:12:38;101450.06;;;25.51;64.46
51460;BME280;37534;39.772;2.718;2023-05-07T12:15:05;101442.22;;;25.38;64.77
51460;BME280;37534;39.772;2.718;2023-05-07T12:17:31;101452.91;;;25.26;66.43
51460;BME280;37534;39.772;2.718;2023-05-07T12:19:56;101444.88;;;25.03;66.37
51460;BME280;37534;39.772;2.718;2023-05-07T12:22:22;101445.59;;;24.94;68.37
51460;BME280;37534;39.772;2.718;2023-05-07T12:24:50;101448.81;;;24.86;70.16
51460;BME280;37534;39.772;2.718;2023-05-07T12:27:21;101438.53;;;24.59;69.98
51460;BME280;37534;39.772;2.718;2023-05-07T12:29:48;101449.19;;;24.44;72.50
51460;BME280;37534;39.772;2.718;2023-05-07T12:32:16;101437.81;;;24.20;73.22
51460;BME280;37534;39.772;2.718;2023-05-07T12:34:42;101437.63;;;24.10;74.03
51460;BME280;37534;39.772;2.718;2023-05-07T12:37:08;101447.53;;;24.06;74.89
51460;BME280;37534;39.772;2.718;2023-05-07T12:39:33;101448.34;;;23.83;76.33
51460;BME280;37534;39.772;2.718;2023-05-07T12:41:59;101444.13;;;23.54;77.62
51460;BME280;37534;39.772;2.718;2023-05-07T12:44:29;101446.34;;;23.48;76.76
51460;BME280;37534;39.772;2.718;2023-05-07T12:46:55;101444.13;;;23.42;76.37
51460;BME280;37534;39.772;2.718;2023-05-07T12:49:21;101450.63;;;23.23;77.73
51460;BME280;37534;39.772;2.718;2023-05-07T12:51:47;101441.06;;;23.35;78.66
51460;BME280;37534;39.772;2.718;2023-05-07T12:54:14;101446.53;;;23.45;77.84
51460;BME280;37534;39.772;2.718;2023-05-07T12:57:00;101436.88;;;23.45;77.33
51460;BME280;37534;39.772;2.718;2023-05-07T12:59:37;101442.31;;;23.55;76.43
51460;BME280;37534;39.772;2.718;2023-05-07T13:02:04;101449.81;;;23.61;75.98